createdAt,value
2023-01-04T00:01:17.633Z,101416.50
2023-01-04T00:06:19.996Z,101397.47
2023-01-04T00:11:23.311Z,101393.13
2023-01-04T00:16:28.144Z,101390.50
2023-01-04T00:21:30.796Z,101378.09
2023-01-04T00:26:34.567Z,101379.69
2023-01-04T00:31:36.977Z,101365.09
2023-01-04T00:36:38.593Z,101364.09
2023-01-04T00:41:59.363Z,101334.03
2023-01-04T00:47:03.405Z,101329.72
2023-01-04T00:52:05.373Z,101331.56
2023-01-04T00:57:07.938Z,101307.69
2023-01-04T01:02:09.724Z,101300.50
2023-01-04T01:07:11.433Z,101291.75
2023-01-04T01:12:13.054Z,101291.13
2023-01-04T01:17:14.829Z,101267.97
2023-01-04T01:22:16.677Z,101272.84
2023-01-04T01:27:18.887Z,101272.13
2023-01-04T01:32:20.624Z,101258.16
2023-01-04T01:37:22.204Z,101266.03
2023-01-04T01:42:23.859Z,101246.31
2023-01-04T01:47:33.441Z,101245.06
2023-01-04T01:52:39.024Z,101245.06
2023-01-04T01:57:43.312Z,101232.22
2023-01-04T02:03:05.271Z,101240.16
2023-01-04T02:08:08.411Z,101250.53
2023-01-04T02:13:15.000Z,101245.53
2023-01-04T02:18:25.591Z,101235.63
2023-01-04T02:23:45.627Z,101235.31
2023-01-04T02:29:18.060Z,101227.41
2023-01-04T02:34:36.319Z,101239.09
2023-01-04T02:39:50.834Z,101251.47
2023-01-04T02:45:04.193Z,101221.44
2023-01-04T02:50:31.949Z,101205.47
2023-01-04T02:56:12.736Z,101215.06
2023-01-04T03:02:07.104Z,101221.44
2023-01-04T03:07:13.020Z,101211.81
2023-01-04T03:12:33.678Z,101211.81
2023-01-04T03:17:45.474Z,101183.47
2023-01-04T03:23:27.491Z,101186.91
2023-01-04T03:28:53.413Z,101195.56
2023-01-04T03:34:13.556Z,101194.47
2023-01-04T03:39:49.000Z,101167.56
2023-01-04T03:45:37.020Z,101168.94
2023-01-04T03:50:53.232Z,101172.38
2023-01-04T03:55:56.668Z,101167.72
2023-01-04T04:01:03.623Z,101149.16
2023-01-04T04:06:24.380Z,101153.28
2023-01-04T04:11:32.402Z,101128.72
2023-01-04T04:16:34.332Z,101146.09
2023-01-04T04:21:36.270Z,101115.50
2023-01-04T04:26:37.915Z,101116.19
2023-01-04T04:31:39.626Z,101118.94
2023-01-04T04:36:41.420Z,101104.84
2023-01-04T04:41:43.163Z,101128.91
2023-01-04T04:46:46.391Z,101090.41
2023-01-04T04:51:48.089Z,101097.78
2023-01-04T04:56:50.663Z,101094.19
2023-01-04T05:01:52.537Z,101068.75
2023-01-04T05:06:54.435Z,101057.44
2023-01-04T05:12:14.453Z,101035.91
2023-01-04T05:17:16.087Z,101020.47
2023-01-04T05:22:17.746Z,101025.44
2023-01-04T05:27:19.400Z,101016.50
2023-01-04T05:32:20.987Z,100998.28
2023-01-04T05:37:22.653Z,101055.66
2023-01-04T05:42:28.086Z,101066.50
2023-01-04T05:47:30.091Z,101079.41
2023-01-04T05:52:31.939Z,101087.50
2023-01-04T05:57:33.627Z,101074.75
2023-01-04T06:02:35.438Z,101069.97
2023-01-04T06:07:38.294Z,101062.91
2023-01-04T06:12:40.418Z,101056.72
2023-01-04T06:17:42.329Z,101063.75
2023-01-04T06:22:44.632Z,101064.13
2023-01-04T06:27:46.429Z,101059.81
2023-01-04T06:32:48.203Z,101049.00
2023-01-04T06:37:49.863Z,101059.81
2023-01-04T06:42:51.583Z,101060.50
2023-01-04T06:47:53.220Z,101073.22
2023-01-04T06:52:54.856Z,101030.63
2023-01-04T06:57:59.647Z,101046.44
2023-01-04T07:03:13.491Z,101036.41
2023-01-04T07:08:17.735Z,101012.72
2023-01-04T07:13:19.498Z,101024.03
2023-01-04T07:18:21.449Z,101022.84
2023-01-04T07:23:23.170Z,101019.41
2023-01-04T07:29:00.318Z,101005.16
2023-01-04T07:34:02.014Z,101008.75
2023-01-04T07:39:03.969Z,101008.41
2023-01-04T07:44:06.766Z,101001.38
2023-01-04T07:49:17.532Z,101010.63
2023-01-04T07:54:20.004Z,101002.38
2023-01-04T07:59:22.274Z,101001.00
2023-01-04T08:04:28.282Z,101006.19
2023-01-04T08:09:32.968Z,100996.03
2023-01-04T08:14:34.668Z,101029.19
2023-01-04T08:19:36.411Z,101038.47
2023-01-04T08:24:38.097Z,101039.00
2023-01-04T08:29:39.792Z,101039.84
2023-01-04T08:34:41.744Z,101040.16
2023-01-04T08:39:48.658Z,101051.00
2023-01-04T08:44:55.593Z,101059.75
2023-01-04T08:50:06.412Z,101062.16
2023-01-04T08:55:13.898Z,101053.59
2023-01-04T09:00:18.150Z,101064.91
2023-01-04T09:05:22.460Z,101068.69
2023-01-04T09:10:24.965Z,101080.91
2023-01-04T09:15:26.700Z,101068.88
2023-01-04T09:20:28.735Z,101071.63
2023-01-04T09:25:30.493Z,101091.69
2023-01-04T09:30:32.172Z,101078.31
2023-01-04T09:35:33.949Z,101089.66
2023-01-04T09:40:57.962Z,101073.69
2023-01-04T09:46:07.414Z,101089.31
2023-01-04T09:51:16.679Z,101086.56
2023-01-04T09:56:32.482Z,101081.25
2023-01-04T10:01:49.999Z,101080.06
2023-01-04T10:06:52.954Z,101077.66
2023-01-04T10:12:25.735Z,101067.00
2023-01-04T10:18:52.022Z,101086.63
2023-01-04T10:23:14.928Z,101095.03
2023-01-04T10:28:28.815Z,101083.19
2023-01-04T10:33:57.398Z,101077.00
2023-01-04T10:39:04.957Z,101081.97
2023-01-04T10:44:28.189Z,101062.19
2023-01-04T10:49:44.548Z,101068.03
2023-01-04T10:54:59.523Z,101051.91
2023-01-04T11:00:19.473Z,101047.09
2023-01-04T11:05:37.227Z,101051.03
2023-01-04T11:10:48.552Z,101041.41
2023-01-04T11:15:51.642Z,101045.88
2023-01-04T11:20:53.608Z,101023.72
2023-01-04T11:26:09.338Z,101052.78
2023-01-04T11:31:30.453Z,101038.88
2023-01-04T11:36:32.064Z,101035.56
2023-01-04T11:41:34.100Z,101043.31
2023-01-04T11:46:35.871Z,101050.31
2023-01-04T11:51:39.694Z,101038.50
2023-01-04T11:57:11.760Z,101057.06
2023-01-04T12:07:47.826Z,101016.19
2023-01-04T12:12:50.685Z,101037.50
2023-01-04T12:17:56.021Z,101033.38
2023-01-04T12:22:57.719Z,101036.44
2023-01-04T12:27:59.721Z,101033.53
2023-01-04T12:33:30.511Z,101036.41
2023-01-04T12:39:09.907Z,101037.13
2023-01-04T12:44:36.871Z,101051.41
2023-01-04T12:49:56.572Z,101042.63
2023-01-04T12:55:00.844Z,101051.41
2023-01-04T13:00:14.036Z,101036.28
2023-01-04T13:05:54.778Z,101039.56
2023-01-04T13:10:43.948Z,101029.56
2023-01-04T13:16:16.905Z,101049.66
2023-01-04T13:21:33.190Z,101040.56
2023-01-04T13:26:43.068Z,101049.50
2023-01-04T13:31:44.691Z,101033.38
2023-01-04T13:37:04.653Z,101045.75
2023-01-04T13:42:12.634Z,101026.97
2023-01-04T13:47:14.599Z,101029.41
2023-01-04T13:58:03.613Z,101041.25
2023-01-04T14:03:14.767Z,101035.59
2023-01-04T14:08:43.009Z,101021.31
2023-01-04T14:13:47.700Z,101017.03
2023-01-04T14:18:50.458Z,101025.97
2023-01-04T14:23:52.169Z,101029.56
2023-01-04T14:28:53.875Z,101030.63
2023-01-04T14:33:56.019Z,101023.75
2023-01-04T14:39:08.281Z,101007.56
2023-01-04T14:44:16.206Z,101032.66
2023-01-04T14:49:19.928Z,101028.72
2023-01-04T14:54:25.339Z,101036.78
2023-01-04T14:59:28.609Z,101020.97
2023-01-04T15:04:30.382Z,101021.97
2023-01-04T15:09:32.178Z,101043.66
2023-01-04T15:14:34.770Z,101041.75
2023-01-04T15:19:38.368Z,101026.63
2023-01-04T15:24:40.177Z,101027.84
2023-01-04T15:29:41.948Z,101027.66
2023-01-04T15:34:47.001Z,101032.28
2023-01-04T15:39:48.838Z,101016.81
2023-01-04T15:44:50.548Z,101008.22
2023-01-04T15:49:52.154Z,101014.63
2023-01-04T15:54:54.000Z,101028.88
2023-01-04T15:59:55.746Z,101025.81
2023-01-04T16:04:57.492Z,101037.81
2023-01-04T16:09:59.205Z,101055.53
2023-01-04T16:15:01.275Z,101061.19
2023-01-04T16:20:03.964Z,101047.59
2023-01-04T16:25:10.752Z,101042.47
2023-01-04T16:30:14.080Z,101030.25
2023-01-04T16:35:15.951Z,101033.16
2023-01-04T16:40:17.961Z,101052.91
2023-01-04T16:45:19.707Z,101062.53
2023-01-04T16:50:21.483Z,101056.50
2023-01-04T16:55:24.220Z,101078.31
2023-01-04T17:00:26.356Z,101060.63
2023-01-04T17:05:28.516Z,101074.56
2023-01-04T17:10:30.387Z,101079.03
2023-01-04T17:15:43.147Z,101078.69
2023-01-04T17:20:53.635Z,101090.22
2023-01-04T17:26:01.038Z,101110.34
2023-01-04T17:31:17.669Z,101105.34
2023-01-04T17:36:20.769Z,101100.69
2023-01-04T17:41:24.645Z,101125.41
2023-01-04T17:46:28.090Z,101126.78
2023-01-04T17:51:30.233Z,101135.34
2023-01-04T17:56:33.483Z,101121.78
2023-01-04T18:01:36.123Z,101139.47
2023-01-04T18:06:39.123Z,101124.34
2023-01-04T18:11:43.453Z,101121.91
2023-01-04T18:16:58.457Z,101127.75
2023-01-04T18:22:00.824Z,101123.66
2023-01-04T18:27:20.846Z,101133.28
2023-01-04T18:32:26.218Z,101101.84
2023-01-04T18:37:28.057Z,101125.03
2023-01-04T18:42:31.473Z,101118.00
2023-01-04T18:47:34.839Z,101119.69
2023-01-04T18:52:37.530Z,101119.16
2023-01-04T18:57:40.472Z,101133.94
2023-01-04T19:02:42.677Z,101149.56
2023-01-04T19:07:47.918Z,101144.94
2023-01-04T19:12:50.828Z,101152.34
2023-01-04T19:17:53.054Z,101148.69
2023-01-04T19:22:55.160Z,101167.25
2023-01-04T19:27:57.189Z,101151.81
2023-01-04T19:32:59.351Z,101168.28
2023-01-04T19:38:01.801Z,101179.13
2023-01-04T19:43:04.923Z,101174.75
2023-01-04T19:48:07.090Z,101191.25
2023-01-04T19:53:08.952Z,101185.88
2023-01-04T19:58:11.003Z,101190.72
2023-01-04T20:03:13.777Z,101202.53
2023-01-04T20:08:15.910Z,101207.91
2023-01-04T20:13:27.309Z,101212.50
2023-01-04T20:18:29.773Z,101201.19
2023-01-04T20:24:00.994Z,101223.34
2023-01-04T20:29:07.861Z,101223.16
2023-01-04T20:34:29.928Z,101230.75
2023-01-04T20:39:31.990Z,101247.59
2023-01-04T20:44:36.050Z,101236.09
2023-01-04T20:49:41.425Z,101245.53
2023-01-04T20:54:43.782Z,101248.97
2023-01-04T21:00:01.924Z,101271.47
2023-01-04T21:05:39.026Z,101266.13
2023-01-04T21:10:51.660Z,101275.06
2023-01-04T21:16:01.410Z,101261.81
2023-01-04T21:21:24.157Z,101283.25
2023-01-04T21:26:28.421Z,101293.53
2023-01-04T21:31:31.977Z,101297.69
2023-01-04T21:36:34.141Z,101304.22
2023-01-04T21:41:36.199Z,101306.47
2023-01-04T21:46:38.146Z,101310.97
2023-01-04T21:51:40.259Z,101317.63
2023-01-04T21:56:42.957Z,101304.59
2023-01-04T22:01:48.037Z,101311.13
2023-01-04T22:06:50.094Z,101305.94
2023-01-04T22:11:52.395Z,101308.84
2023-01-04T22:16:55.801Z,101318.41
2023-01-04T22:21:58.031Z,101321.59
2023-01-04T22:27:00.104Z,101336.69
2023-01-04T22:32:02.266Z,101338.41
2023-01-04T22:37:07.930Z,101344.22
2023-01-04T22:42:09.874Z,101356.94
2023-01-04T22:47:14.946Z,101356.94
2023-01-04T22:52:17.017Z,101351.38
2023-01-04T22:57:19.332Z,101361.97
2023-01-04T23:02:21.518Z,101364.78
2023-01-04T23:07:23.502Z,101359.63
2023-01-04T23:12:25.773Z,101355.84
2023-01-04T23:17:27.535Z,101366.19
2023-01-04T23:22:29.417Z,101369.63
2023-01-04T23:27:31.912Z,101366.75
2023-01-04T23:32:34.113Z,101370.81
2023-01-04T23:37:37.641Z,101382.66
2023-01-04T23:42:40.223Z,101383.72
2023-01-04T23:47:43.018Z,101383.72
2023-01-04T23:52:47.223Z,101388.50
2023-01-04T23:57:53.185Z,101395.53
